This is the latest recevied weather packets stored in our database for station/object DOUGLAS. If no packets are shown the sender has not sent any weather packets the latest 10 day(s).
| Time | Temp. | Humidity | Pressure | Rain* | Wind** | Luminosity | Snow |
|---|---|---|---|---|---|---|---|
| 1777858204 | 25.56° C | 31% | 0 hPa | - | - | - | - |
| 1777857602 | 26.67° C | 31% | 0 hPa | - | - | - | - |
| 1777857003 | 27.22° C | 31% | 0 hPa | - | - | - | - |
| 1777856403 | 27.22° C | 29% | 0 hPa | - | - | - | - |
| 1777855803 | 27.78° C | 30% | 0 hPa | - | - | - | - |
| 1777855203 | 27.78° C | 29% | 0 hPa | - | - | - | - |
| 1777854603 | 29.44° C | 23% | 0 hPa | - | - | - | - |
| 1777854003 | 30° C | 17% | 0 hPa | - | - | - | - |
| 1777853403 | 30° C | 16% | 0 hPa | - | - | - | - |
| 1777852803 | 30° C | 17% | 0 hPa | - | - | - | - |
| 1777852203 | 30.56° C | 17% | 0 hPa | - | - | - | - |
| 1777851603 | 30° C | 18% | 0 hPa | - | - | - | - |
| 1777851004 | 30° C | 19% | 0 hPa | - | - | - | - |
| 1777850402 | 30.56° C | 17% | 0 hPa | - | - | - | - |
| 1777849803 | 30° C | 19% | 0 hPa | - | - | - | - |
| 1777849203 | 30° C | 17% | 0 hPa | - | - | - | - |
| 1777848603 | 29.44° C | 19% | 0 hPa | - | - | - | - |
| 1777848003 | 29.44° C | 22% | 0 hPa | - | - | - | - |
| 1777847403 | 30.56° C | 17% | 0 hPa | - | - | - | - |
| 1777846803 | 30° C | 21% | 0 hPa | - | - | - | - |
| 1777846203 | 30.56° C | 19% | 0 hPa | - | - | - | - |
| 1777845603 | 30° C | 22% | 0 hPa | - | - | - | - |
| 1777845003 | 30° C | 19% | 0 hPa | - | - | - | - |
| 1777844403 | 30.56° C | 20% | 0 hPa | - | - | - | - |
| 1777843804 | 30.56° C | 21% | 0 hPa | - | - | - | - |
* Rain since midnight (hover to see other rain measurements)
** Current wind speed in m/s (hover to see current wind gust speed)